Terminal Aerodrome Forecast
Issued by NWS Newport/Morehead City, NC

Home | Current Version | Previous Version | Graphics & Text | Print | Product List | Glossary On
Versions: 1 2 3 4 5 6 7 8 9 10 11 12 13 14
000
FTUS42 KMHX 280233 AAB
TAFEWN
TAF AMD
KEWN 280233Z 2803/2824 VRB10KT P6SM VCTS SCT050CB
      TEMPO 2803/2804 VRB15G30KT 1SM TSRA BKN010CB
     FM280400 20004KT P6SM SCT060
     FM282000 20007KT P6SM SCT050=

USA.gov is the U.S. government's official web portal to all federal, state and local government web resources and services.